sensor_id;sensor_type;location;lat;lon;timestamp;temperature;humidity
19680;DHT22;9989;48.962;9.182;2022-12-07T00:01:19;6.00;99.90
19680;DHT22;9989;48.962;9.182;2022-12-07T00:03:46;5.90;99.90
19680;DHT22;9989;48.962;9.182;2022-12-07T00:06:14;5.90;99.90
19680;DHT22;9989;48.962;9.182;2022-12-07T00:08:40;5.90;99.90
19680;DHT22;9989;48.962;9.182;2022-12-07T00:11:08;5.90;99.90
19680;DHT22;9989;48.962;9.182;2022-12-07T00:13:35;5.90;99.90
19680;DHT22;9989;48.962;9.182;2022-12-07T00:16:12;5.90;99.90
19680;DHT22;9989;48.962;9.182;2022-12-07T00:18:39;5.90;99.90
19680;DHT22;9989;48.962;9.182;2022-12-07T00:21:26;5.90;99.90
19680;DHT22;9989;48.962;9.182;2022-12-07T00:23:53;5.90;99.90
19680;DHT22;9989;48.962;9.182;2022-12-07T00:26:27;5.90;99.90
19680;DHT22;9989;48.962;9.182;2022-12-07T00:28:55;5.90;99.90
19680;DHT22;9989;48.962;9.182;2022-12-07T00:31:24;5.90;99.90
19680;DHT22;9989;48.962;9.182;2022-12-07T00:33:50;5.80;99.90
19680;DHT22;9989;48.962;9.182;2022-12-07T00:36:18;5.80;99.90
19680;DHT22;9989;48.962;9.182;2022-12-07T00:38:44;5.80;99.90
19680;DHT22;9989;48.962;9.182;2022-12-07T00:41:12;5.80;99.90
19680;DHT22;9989;48.962;9.182;2022-12-07T00:43:40;5.80;99.90
19680;DHT22;9989;48.962;9.182;2022-12-07T00:46:05;5.80;99.90
19680;DHT22;9989;48.962;9.182;2022-12-07T00:48:31;5.80;99.90
19680;DHT22;9989;48.962;9.182;2022-12-07T00:51:00;5.80;99.90
19680;DHT22;9989;48.962;9.182;2022-12-07T00:53:26;5.80;99.90
19680;DHT22;9989;48.962;9.182;2022-12-07T00:55:52;5.80;99.90
19680;DHT22;9989;48.962;9.182;2022-12-07T00:58:18;5.80;99.90
19680;DHT22;9989;48.962;9.182;2022-12-07T01:00:44;5.80;99.90
19680;DHT22;9989;48.962;9.182;2022-12-07T01:03:12;5.80;99.90
19680;DHT22;9989;48.962;9.182;2022-12-07T01:05:38;5.80;99.90
19680;DHT22;9989;48.962;9.182;2022-12-07T01:08:04;5.80;99.90
19680;DHT22;9989;48.962;9.182;2022-12-07T01:10:30;5.80;99.90
19680;DHT22;9989;48.962;9.182;2022-12-07T01:12:57;5.80;99.90
19680;DHT22;9989;48.962;9.182;2022-12-07T01:15:23;5.80;99.90
19680;DHT22;9989;48.962;9.182;2022-12-07T01:17:49;5.70;99.90
19680;DHT22;9989;48.962;9.182;2022-12-07T01:20:15;5.70;99.90
19680;DHT22;9989;48.962;9.182;2022-12-07T01:22:42;5.70;99.90
19680;DHT22;9989;48.962;9.182;2022-12-07T01:25:09;5.80;99.90
19680;DHT22;9989;48.962;9.182;2022-12-07T01:27:36;5.80;99.90
19680;DHT22;9989;48.962;9.182;2022-12-07T01:30:03;5.80;99.90
19680;DHT22;9989;48.962;9.182;2022-12-07T01:32:29;5.80;99.90
19680;DHT22;9989;48.962;9.182;2022-12-07T01:34:55;5.80;99.90
19680;DHT22;9989;48.962;9.182;2022-12-07T01:37:21;5.80;99.90
19680;DHT22;9989;48.962;9.182;2022-12-07T01:39:51;5.80;99.90
19680;DHT22;9989;48.962;9.182;2022-12-07T01:42:18;5.80;99.90
19680;DHT22;9989;48.962;9.182;2022-12-07T01:47:46;5.80;99.90
19680;DHT22;9989;48.962;9.182;2022-12-07T01:50:12;5.70;99.90
19680;DHT22;9989;48.962;9.182;2022-12-07T01:52:39;5.70;99.90
19680;DHT22;9989;48.962;9.182;2022-12-07T01:55:09;5.80;99.90
19680;DHT22;9989;48.962;9.182;2022-12-07T01:57:40;5.70;99.90
19680;DHT22;9989;48.962;9.182;2022-12-07T02:00:07;5.70;99.90
19680;DHT22;9989;48.962;9.182;2022-12-07T02:02:40;5.70;99.90
19680;DHT22;9989;48.962;9.182;2022-12-07T02:05:07;5.70;99.90
19680;DHT22;9989;48.962;9.182;2022-12-07T02:07:34;5.70;99.90
19680;DHT22;9989;48.962;9.182;2022-12-07T02:12:39;5.60;99.90
19680;DHT22;9989;48.962;9.182;2022-12-07T02:15:05;5.60;99.90
19680;DHT22;9989;48.962;9.182;2022-12-07T02:28:36;5.60;99.90
19680;DHT22;9989;48.962;9.182;2022-12-07T02:31:10;5.60;99.90
19680;DHT22;9989;48.962;9.182;2022-12-07T02:33:53;5.60;99.90
19680;DHT22;9989;48.962;9.182;2022-12-07T02:36:26;5.50;99.90
19680;DHT22;9989;48.962;9.182;2022-12-07T02:39:00;5.50;99.90
19680;DHT22;9989;48.962;9.182;2022-12-07T02:41:29;5.50;99.90
19680;DHT22;9989;48.962;9.182;2022-12-07T02:44:10;5.50;99.90
19680;DHT22;9989;48.962;9.182;2022-12-07T02:47:03;5.50;99.90
19680;DHT22;9989;48.962;9.182;2022-12-07T02:49:30;5.40;99.90
19680;DHT22;9989;48.962;9.182;2022-12-07T02:51:57;5.40;99.90
19680;DHT22;9989;48.962;9.182;2022-12-07T02:54:23;5.40;99.90
19680;DHT22;9989;48.962;9.182;2022-12-07T02:56:49;5.40;99.90
19680;DHT22;9989;48.962;9.182;2022-12-07T03:13:23;5.20;99.90
19680;DHT22;9989;48.962;9.182;2022-12-07T03:18:25;5.20;99.90
19680;DHT22;9989;48.962;9.182;2022-12-07T03:20:53;5.20;99.90
19680;DHT22;9989;48.962;9.182;2022-12-07T03:23:21;5.20;99.90
19680;DHT22;9989;48.962;9.182;2022-12-07T03:25:52;5.20;99.90
19680;DHT22;9989;48.962;9.182;2022-12-07T03:28:22;5.20;99.90
19680;DHT22;9989;48.962;9.182;2022-12-07T03:30:56;5.20;99.90
19680;DHT22;9989;48.962;9.182;2022-12-07T03:36:47;5.30;99.90
19680;DHT22;9989;48.962;9.182;2022-12-07T03:41:45;5.40;99.90
19680;DHT22;9989;48.962;9.182;2022-12-07T03:44:12;5.40;99.90
19680;DHT22;9989;48.962;9.182;2022-12-07T03:49:16;5.30;99.90
19680;DHT22;9989;48.962;9.182;2022-12-07T03:54:30;5.10;99.90
19680;DHT22;9989;48.962;9.182;2022-12-07T03:56:58;5.00;99.90
19680;DHT22;9989;48.962;9.182;2022-12-07T03:59:25;5.00;99.90
19680;DHT22;9989;48.962;9.182;2022-12-07T04:01:54;4.90;99.90
19680;DHT22;9989;48.962;9.182;2022-12-07T04:04:23;4.90;99.90
19680;DHT22;9989;48.962;9.182;2022-12-07T04:06:50;4.90;99.90
19680;DHT22;9989;48.962;9.182;2022-12-07T04:09:15;5.00;99.90
19680;DHT22;9989;48.962;9.182;2022-12-07T04:11:42;5.00;99.90
19680;DHT22;9989;48.962;9.182;2022-12-07T04:14:08;5.00;99.90
19680;DHT22;9989;48.962;9.182;2022-12-07T04:16:51;5.00;99.90
19680;DHT22;9989;48.962;9.182;2022-12-07T04:19:18;5.10;99.90
19680;DHT22;9989;48.962;9.182;2022-12-07T04:21:44;5.10;99.90
19680;DHT22;9989;48.962;9.182;2022-12-07T04:24:12;5.10;99.90
19680;DHT22;9989;48.962;9.182;2022-12-07T04:26:37;5.10;99.90
19680;DHT22;9989;48.962;9.182;2022-12-07T04:29:03;5.10;99.90
19680;DHT22;9989;48.962;9.182;2022-12-07T04:31:29;5.20;99.90
19680;DHT22;9989;48.962;9.182;2022-12-07T04:33:54;5.20;99.90
19680;DHT22;9989;48.962;9.182;2022-12-07T04:36:20;5.20;99.90
19680;DHT22;9989;48.962;9.182;2022-12-07T04:38:46;5.20;99.90
19680;DHT22;9989;48.962;9.182;2022-12-07T04:41:12;5.20;99.90
19680;DHT22;9989;48.962;9.182;2022-12-07T04:43:39;5.20;99.90
19680;DHT22;9989;48.962;9.182;2022-12-07T04:46:04;5.20;99.90
19680;DHT22;9989;48.962;9.182;2022-12-07T04:48:30;5.20;99.90
19680;DHT22;9989;48.962;9.182;2022-12-07T04:50:56;5.30;99.90
19680;DHT22;9989;48.962;9.182;2022-12-07T04:53:22;5.30;99.90
19680;DHT22;9989;48.962;9.182;2022-12-07T04:55:47;5.20;99.90
19680;DHT22;9989;48.962;9.182;2022-12-07T04:58:13;5.20;99.90
19680;DHT22;9989;48.962;9.182;2022-12-07T05:00:39;5.30;99.90
19680;DHT22;9989;48.962;9.182;2022-12-07T05:03:05;5.30;99.90
19680;DHT22;9989;48.962;9.182;2022-12-07T05:05:31;5.30;99.90
19680;DHT22;9989;48.962;9.182;2022-12-07T05:07:57;5.30;99.90
19680;DHT22;9989;48.962;9.182;2022-12-07T05:10:22;5.30;99.90
19680;DHT22;9989;48.962;9.182;2022-12-07T05:12:48;5.30;99.90
19680;DHT22;9989;48.962;9.182;2022-12-07T05:15:15;5.30;99.90
19680;DHT22;9989;48.962;9.182;2022-12-07T05:17:41;5.30;99.90
19680;DHT22;9989;48.962;9.182;2022-12-07T05:20:07;5.20;99.90
19680;DHT22;9989;48.962;9.182;2022-12-07T05:22:33;5.20;99.90
19680;DHT22;9989;48.962;9.182;2022-12-07T05:24:59;5.20;99.90
19680;DHT22;9989;48.962;9.182;2022-12-07T05:27:24;5.20;99.90
19680;DHT22;9989;48.962;9.182;2022-12-07T05:29:50;5.20;99.90
19680;DHT22;9989;48.962;9.182;2022-12-07T05:32:16;5.20;99.90
19680;DHT22;9989;48.962;9.182;2022-12-07T05:34:41;5.20;99.90
19680;DHT22;9989;48.962;9.182;2022-12-07T05:37:07;5.20;99.90
19680;DHT22;9989;48.962;9.182;2022-12-07T05:39:33;5.20;99.90
19680;DHT22;9989;48.962;9.182;2022-12-07T05:41:58;5.20;99.90
19680;DHT22;9989;48.962;9.182;2022-12-07T05:47:05;5.20;99.90
19680;DHT22;9989;48.962;9.182;2022-12-07T05:49:31;5.20;99.90
19680;DHT22;9989;48.962;9.182;2022-12-07T05:51:56;5.20;99.90
19680;DHT22;9989;48.962;9.182;2022-12-07T05:54:22;5.20;99.90
19680;DHT22;9989;48.962;9.182;2022-12-07T05:56:48;5.20;99.90
19680;DHT22;9989;48.962;9.182;2022-12-07T05:59:13;5.10;99.90
19680;DHT22;9989;48.962;9.182;2022-12-07T06:01:52;5.10;99.90
19680;DHT22;9989;48.962;9.182;2022-12-07T06:04:18;5.10;99.90
19680;DHT22;9989;48.962;9.182;2022-12-07T06:06:44;5.10;99.90
19680;DHT22;9989;48.962;9.182;2022-12-07T06:09:10;5.10;99.90
19680;DHT22;9989;48.962;9.182;2022-12-07T06:11:38;5.10;99.90
19680;DHT22;9989;48.962;9.182;2022-12-07T06:14:22;5.10;99.90
19680;DHT22;9989;48.962;9.182;2022-12-07T06:16:48;5.00;99.90
19680;DHT22;9989;48.962;9.182;2022-12-07T06:19:14;4.90;99.90
19680;DHT22;9989;48.962;9.182;2022-12-07T06:21:39;4.90;99.90
19680;DHT22;9989;48.962;9.182;2022-12-07T06:24:05;4.90;99.90
19680;DHT22;9989;48.962;9.182;2022-12-07T06:26:31;5.00;99.90
19680;DHT22;9989;48.962;9.182;2022-12-07T06:28:57;5.00;99.90
19680;DHT22;9989;48.962;9.182;2022-12-07T06:31:22;5.00;99.90
19680;DHT22;9989;48.962;9.182;2022-12-07T06:33:48;5.00;99.90
19680;DHT22;9989;48.962;9.182;2022-12-07T06:36:14;5.00;99.90
19680;DHT22;9989;48.962;9.182;2022-12-07T06:38:39;5.10;99.90
19680;DHT22;9989;48.962;9.182;2022-12-07T06:41:05;5.10;99.90
19680;DHT22;9989;48.962;9.182;2022-12-07T06:43:32;5.00;99.90
19680;DHT22;9989;48.962;9.182;2022-12-07T06:45:58;5.00;99.90
19680;DHT22;9989;48.962;9.182;2022-12-07T06:48:23;5.10;99.90
19680;DHT22;9989;48.962;9.182;2022-12-07T06:50:49;5.00;99.90
19680;DHT22;9989;48.962;9.182;2022-12-07T06:53:14;5.00;99.90
19680;DHT22;9989;48.962;9.182;2022-12-07T06:55:41;5.00;99.90
19680;DHT22;9989;48.962;9.182;2022-12-07T06:58:07;5.10;99.90
19680;DHT22;9989;48.962;9.182;2022-12-07T07:00:33;5.10;99.90
19680;DHT22;9989;48.962;9.182;2022-12-07T07:03:00;5.00;99.90
19680;DHT22;9989;48.962;9.182;2022-12-07T07:05:26;5.00;99.90
19680;DHT22;9989;48.962;9.182;2022-12-07T07:07:51;5.00;99.90
19680;DHT22;9989;48.962;9.182;2022-12-07T07:10:17;5.00;99.90
19680;DHT22;9989;48.962;9.182;2022-12-07T07:12:43;5.00;99.90
19680;DHT22;9989;48.962;9.182;2022-12-07T07:15:09;5.00;99.90
19680;DHT22;9989;48.962;9.182;2022-12-07T07:17:35;5.00;99.90
19680;DHT22;9989;48.962;9.182;2022-12-07T07:20:00;5.00;99.90
19680;DHT22;9989;48.962;9.182;2022-12-07T07:22:26;5.10;99.90
19680;DHT22;9989;48.962;9.182;2022-12-07T07:24:51;5.00;99.90
19680;DHT22;9989;48.962;9.182;2022-12-07T07:27:17;5.10;99.90
19680;DHT22;9989;48.962;9.182;2022-12-07T07:29:42;5.10;99.90
19680;DHT22;9989;48.962;9.182;2022-12-07T07:32:08;5.10;99.90
19680;DHT22;9989;48.962;9.182;2022-12-07T07:34:34;5.10;99.90
19680;DHT22;9989;48.962;9.182;2022-12-07T07:36:59;5.10;99.90
19680;DHT22;9989;48.962;9.182;2022-12-07T07:39:25;5.10;99.90
19680;DHT22;9989;48.962;9.182;2022-12-07T07:41:51;5.20;99.90
19680;DHT22;9989;48.962;9.182;2022-12-07T07:44:16;5.20;99.90
19680;DHT22;9989;48.962;9.182;2022-12-07T07:46:42;5.20;99.90
19680;DHT22;9989;48.962;9.182;2022-12-07T07:49:09;5.20;99.90
19680;DHT22;9989;48.962;9.182;2022-12-07T07:51:36;5.20;99.90
19680;DHT22;9989;48.962;9.182;2022-12-07T07:54:02;5.30;99.90
19680;DHT22;9989;48.962;9.182;2022-12-07T07:56:28;5.30;99.90
19680;DHT22;9989;48.962;9.182;2022-12-07T07:58:54;5.30;99.90
19680;DHT22;9989;48.962;9.182;2022-12-07T08:01:19;5.40;99.90
19680;DHT22;9989;48.962;9.182;2022-12-07T08:03:46;5.40;99.90
19680;DHT22;9989;48.962;9.182;2022-12-07T08:06:14;5.40;99.90
19680;DHT22;9989;48.962;9.182;2022-12-07T08:08:43;5.40;99.90
19680;DHT22;9989;48.962;9.182;2022-12-07T08:11:09;5.50;99.90
19680;DHT22;9989;48.962;9.182;2022-12-07T08:13:35;5.50;99.90
19680;DHT22;9989;48.962;9.182;2022-12-07T08:16:09;5.50;99.90
19680;DHT22;9989;48.962;9.182;2022-12-07T08:18:39;5.50;99.90
19680;DHT22;9989;48.962;9.182;2022-12-07T08:21:06;5.50;99.90
19680;DHT22;9989;48.962;9.182;2022-12-07T08:23:32;5.60;99.90
19680;DHT22;9989;48.962;9.182;2022-12-07T08:26:14;5.60;99.90
19680;DHT22;9989;48.962;9.182;2022-12-07T08:28:40;5.60;99.90
19680;DHT22;9989;48.962;9.182;2022-12-07T08:31:12;5.60;99.90
19680;DHT22;9989;48.962;9.182;2022-12-07T08:33:38;5.70;99.90
19680;DHT22;9989;48.962;9.182;2022-12-07T08:36:09;5.80;99.90
19680;DHT22;9989;48.962;9.182;2022-12-07T08:38:37;5.80;99.90
19680;DHT22;9989;48.962;9.182;2022-12-07T08:41:03;5.90;99.90
19680;DHT22;9989;48.962;9.182;2022-12-07T08:43:29;5.90;99.90
19680;DHT22;9989;48.962;9.182;2022-12-07T08:46:22;6.00;99.90
19680;DHT22;9989;48.962;9.182;2022-12-07T08:48:50;6.10;99.90
19680;DHT22;9989;48.962;9.182;2022-12-07T08:51:17;6.20;99.90
19680;DHT22;9989;48.962;9.182;2022-12-07T08:53:43;6.30;99.90
19680;DHT22;9989;48.962;9.182;2022-12-07T08:56:10;6.30;99.90
19680;DHT22;9989;48.962;9.182;2022-12-07T08:58:36;6.30;99.90
19680;DHT22;9989;48.962;9.182;2022-12-07T09:01:04;6.30;99.90
19680;DHT22;9989;48.962;9.182;2022-12-07T09:03:30;6.30;99.90
19680;DHT22;9989;48.962;9.182;2022-12-07T09:05:56;6.40;99.90
19680;DHT22;9989;48.962;9.182;2022-12-07T09:08:26;6.40;99.90
19680;DHT22;9989;48.962;9.182;2022-12-07T09:10:53;6.50;99.90
19680;DHT22;9989;48.962;9.182;2022-12-07T09:13:19;6.50;99.90
19680;DHT22;9989;48.962;9.182;2022-12-07T09:15:44;6.60;99.90
19680;DHT22;9989;48.962;9.182;2022-12-07T09:18:10;6.70;99.90
19680;DHT22;9989;48.962;9.182;2022-12-07T09:20:35;6.70;99.90
19680;DHT22;9989;48.962;9.182;2022-12-07T09:23:01;6.70;99.90
19680;DHT22;9989;48.962;9.182;2022-12-07T09:25:27;6.80;99.90
19680;DHT22;9989;48.962;9.182;2022-12-07T09:27:57;6.70;99.90
19680;DHT22;9989;48.962;9.182;2022-12-07T09:30:22;6.60;99.90
19680;DHT22;9989;48.962;9.182;2022-12-07T09:32:48;6.60;99.90
19680;DHT22;9989;48.962;9.182;2022-12-07T09:35:14;6.50;99.90
19680;DHT22;9989;48.962;9.182;2022-12-07T09:37:40;6.50;99.90
19680;DHT22;9989;48.962;9.182;2022-12-07T09:40:06;6.40;99.90
19680;DHT22;9989;48.962;9.182;2022-12-07T09:42:39;6.30;99.90
19680;DHT22;9989;48.962;9.182;2022-12-07T09:45:21;6.30;99.90
19680;DHT22;9989;48.962;9.182;2022-12-07T09:47:47;6.30;99.90
19680;DHT22;9989;48.962;9.182;2022-12-07T09:50:15;6.30;99.90
19680;DHT22;9989;48.962;9.182;2022-12-07T09:52:44;6.30;99.90
19680;DHT22;9989;48.962;9.182;2022-12-07T09:55:16;6.30;99.90
19680;DHT22;9989;48.962;9.182;2022-12-07T09:57:44;6.40;99.90
19680;DHT22;9989;48.962;9.182;2022-12-07T10:00:16;6.40;99.90
19680;DHT22;9989;48.962;9.182;2022-12-07T10:02:56;6.40;99.90
19680;DHT22;9989;48.962;9.182;2022-12-07T10:05:34;6.40;99.90
19680;DHT22;9989;48.962;9.182;2022-12-07T10:08:00;6.40;99.90
19680;DHT22;9989;48.962;9.182;2022-12-07T10:10:31;6.40;99.90
19680;DHT22;9989;48.962;9.182;2022-12-07T10:13:08;6.50;99.90
19680;DHT22;9989;48.962;9.182;2022-12-07T10:15:51;6.60;99.90
19680;DHT22;9989;48.962;9.182;2022-12-07T10:20:47;6.80;99.90
19680;DHT22;9989;48.962;9.182;2022-12-07T10:23:17;6.90;99.90
19680;DHT22;9989;48.962;9.182;2022-12-07T10:25:44;6.90;99.90
19680;DHT22;9989;48.962;9.182;2022-12-07T10:28:17;7.00;99.90
19680;DHT22;9989;48.962;9.182;2022-12-07T10:30:59;7.10;99.90
19680;DHT22;9989;48.962;9.182;2022-12-07T10:33:35;7.20;99.90
19680;DHT22;9989;48.962;9.182;2022-12-07T10:36:17;7.30;99.90
19680;DHT22;9989;48.962;9.182;2022-12-07T10:38:52;7.50;99.90
19680;DHT22;9989;48.962;9.182;2022-12-07T10:41:18;7.50;99.90
19680;DHT22;9989;48.962;9.182;2022-12-07T10:43:50;7.50;99.90
19680;DHT22;9989;48.962;9.182;2022-12-07T10:51:55;7.70;99.90
19680;DHT22;9989;48.962;9.182;2022-12-07T10:59:49;7.50;99.90
19680;DHT22;9989;48.962;9.182;2022-12-07T11:18:28;7.60;99.90
19680;DHT22;9989;48.962;9.182;2022-12-07T11:21:19;7.80;99.90
19680;DHT22;9989;48.962;9.182;2022-12-07T11:24:02;8.20;99.90
19680;DHT22;9989;48.962;9.182;2022-12-07T11:26:48;8.70;99.90
19680;DHT22;9989;48.962;9.182;2022-12-07T11:37:43;9.80;99.90
19680;DHT22;9989;48.962;9.182;2022-12-07T11:40:30;9.70;99.90
19680;DHT22;9989;48.962;9.182;2022-12-07T11:46:04;9.30;99.90
19680;DHT22;9989;48.962;9.182;2022-12-07T11:48:42;8.90;99.90
19680;DHT22;9989;48.962;9.182;2022-12-07T11:51:13;8.60;99.90
19680;DHT22;9989;48.962;9.182;2022-12-07T11:53:49;8.40;99.90
19680;DHT22;9989;48.962;9.182;2022-12-07T11:56:20;8.20;99.90
19680;DHT22;9989;48.962;9.182;2022-12-07T12:01:34;8.10;99.90
19680;DHT22;9989;48.962;9.182;2022-12-07T12:06:36;7.90;99.90
19680;DHT22;9989;48.962;9.182;2022-12-07T12:09:12;7.80;99.90
19680;DHT22;9989;48.962;9.182;2022-12-07T12:17:45;7.60;99.90
19680;DHT22;9989;48.962;9.182;2022-12-07T12:20:25;7.50;99.90
19680;DHT22;9989;48.962;9.182;2022-12-07T12:23:22;7.40;99.90
19680;DHT22;9989;48.962;9.182;2022-12-07T12:25:54;7.30;99.90
19680;DHT22;9989;48.962;9.182;2022-12-07T12:28:28;7.30;99.90
19680;DHT22;9989;48.962;9.182;2022-12-07T12:31:16;7.20;99.90
19680;DHT22;9989;48.962;9.182;2022-12-07T12:33:59;7.20;99.90
19680;DHT22;9989;48.962;9.182;2022-12-07T12:47:00;7.10;99.90
19680;DHT22;9989;48.962;9.182;2022-12-07T12:49:36;7.00;99.90
19680;DHT22;9989;48.962;9.182;2022-12-07T12:57:27;7.00;99.90
19680;DHT22;9989;48.962;9.182;2022-12-07T13:02:22;6.90;99.90
19680;DHT22;9989;48.962;9.182;2022-12-07T13:28:45;7.70;99.90
19680;DHT22;9989;48.962;9.182;2022-12-07T13:33:45;7.70;99.90
19680;DHT22;9989;48.962;9.182;2022-12-07T13:36:33;7.60;99.90
19680;DHT22;9989;48.962;9.182;2022-12-07T13:39:16;7.60;99.90
19680;DHT22;9989;48.962;9.182;2022-12-07T13:41:43;7.60;99.90
19680;DHT22;9989;48.962;9.182;2022-12-07T13:44:14;7.50;99.90
19680;DHT22;9989;48.962;9.182;2022-12-07T13:49:27;7.50;99.90
19680;DHT22;9989;48.962;9.182;2022-12-07T13:51:53;7.50;99.90
19680;DHT22;9989;48.962;9.182;2022-12-07T13:54:20;7.40;99.90
19680;DHT22;9989;48.962;9.182;2022-12-07T13:56:51;7.40;99.90
19680;DHT22;9989;48.962;9.182;2022-12-07T13:59:20;7.40;99.90
19680;DHT22;9989;48.962;9.182;2022-12-07T14:01:47;7.40;99.90
19680;DHT22;9989;48.962;9.182;2022-12-07T14:06:54;7.30;99.90
19680;DHT22;9989;48.962;9.182;2022-12-07T14:09:21;7.30;99.90
19680;DHT22;9989;48.962;9.182;2022-12-07T14:11:49;7.20;99.90
19680;DHT22;9989;48.962;9.182;2022-12-07T14:14:22;7.20;99.90
19680;DHT22;9989;48.962;9.182;2022-12-07T14:17:24;7.00;99.90
19680;DHT22;9989;48.962;9.182;2022-12-07T14:19:58;6.90;99.90
19680;DHT22;9989;48.962;9.182;2022-12-07T14:25:18;6.80;99.90
19680;DHT22;9989;48.962;9.182;2022-12-07T14:30:21;6.80;99.90
19680;DHT22;9989;48.962;9.182;2022-12-07T14:32:50;6.80;99.90
19680;DHT22;9989;48.962;9.182;2022-12-07T14:35:18;6.70;99.90
19680;DHT22;9989;48.962;9.182;2022-12-07T14:37:45;6.60;99.90
19680;DHT22;9989;48.962;9.182;2022-12-07T14:42:45;6.50;99.90
19680;DHT22;9989;48.962;9.182;2022-12-07T14:45:20;6.50;99.90
19680;DHT22;9989;48.962;9.182;2022-12-07T14:47:46;6.40;99.90
19680;DHT22;9989;48.962;9.182;2022-12-07T14:50:14;6.40;99.90
19680;DHT22;9989;48.962;9.182;2022-12-07T14:52:40;6.40;99.90
19680;DHT22;9989;48.962;9.182;2022-12-07T14:55:16;6.40;99.90
19680;DHT22;9989;48.962;9.182;2022-12-07T14:57:44;6.30;99.90
19680;DHT22;9989;48.962;9.182;2022-12-07T15:00:14;6.30;99.90
19680;DHT22;9989;48.962;9.182;2022-12-07T15:02:39;6.30;99.90
19680;DHT22;9989;48.962;9.182;2022-12-07T15:05:05;6.30;99.90
19680;DHT22;9989;48.962;9.182;2022-12-07T15:07:31;6.30;99.90
19680;DHT22;9989;48.962;9.182;2022-12-07T15:09:56;6.20;99.90
19680;DHT22;9989;48.962;9.182;2022-12-07T15:12:22;6.20;99.90
19680;DHT22;9989;48.962;9.182;2022-12-07T15:14:48;6.10;99.90
19680;DHT22;9989;48.962;9.182;2022-12-07T15:17:14;6.10;99.90
19680;DHT22;9989;48.962;9.182;2022-12-07T15:19:39;6.00;99.90
19680;DHT22;9989;48.962;9.182;2022-12-07T15:22:05;6.00;99.90
19680;DHT22;9989;48.962;9.182;2022-12-07T15:24:31;5.90;99.90
19680;DHT22;9989;48.962;9.182;2022-12-07T15:26:56;5.90;99.90
19680;DHT22;9989;48.962;9.182;2022-12-07T15:29:22;5.80;99.90
19680;DHT22;9989;48.962;9.182;2022-12-07T15:31:49;5.80;99.90
19680;DHT22;9989;48.962;9.182;2022-12-07T15:34:15;5.80;99.90
19680;DHT22;9989;48.962;9.182;2022-12-07T15:36:40;5.80;99.90
19680;DHT22;9989;48.962;9.182;2022-12-07T15:39:06;5.70;99.90
19680;DHT22;9989;48.962;9.182;2022-12-07T15:41:31;5.70;99.90
19680;DHT22;9989;48.962;9.182;2022-12-07T15:43:57;5.60;99.90
19680;DHT22;9989;48.962;9.182;2022-12-07T15:46:42;5.70;99.90
19680;DHT22;9989;48.962;9.182;2022-12-07T15:49:17;5.60;99.90
19680;DHT22;9989;48.962;9.182;2022-12-07T15:51:43;5.60;99.90
19680;DHT22;9989;48.962;9.182;2022-12-07T15:54:13;5.60;99.90
19680;DHT22;9989;48.962;9.182;2022-12-07T15:56:41;5.60;99.90
19680;DHT22;9989;48.962;9.182;2022-12-07T15:59:06;5.50;99.90
19680;DHT22;9989;48.962;9.182;2022-12-07T16:01:32;5.50;99.90
19680;DHT22;9989;48.962;9.182;2022-12-07T16:03:57;5.40;99.90
19680;DHT22;9989;48.962;9.182;2022-12-07T16:06:24;5.30;99.90
19680;DHT22;9989;48.962;9.182;2022-12-07T16:08:50;5.30;99.90
19680;DHT22;9989;48.962;9.182;2022-12-07T16:11:16;5.40;99.90
19680;DHT22;9989;48.962;9.182;2022-12-07T16:13:41;5.40;99.90
19680;DHT22;9989;48.962;9.182;2022-12-07T16:16:10;5.30;99.90
19680;DHT22;9989;48.962;9.182;2022-12-07T16:18:36;5.30;99.90
19680;DHT22;9989;48.962;9.182;2022-12-07T16:21:03;5.30;99.90
19680;DHT22;9989;48.962;9.182;2022-12-07T16:23:29;5.30;99.90
19680;DHT22;9989;48.962;9.182;2022-12-07T16:26:06;5.40;99.90
19680;DHT22;9989;48.962;9.182;2022-12-07T16:28:33;5.40;99.90
19680;DHT22;9989;48.962;9.182;2022-12-07T16:31:09;5.30;99.90
19680;DHT22;9989;48.962;9.182;2022-12-07T16:33:36;5.30;99.90
19680;DHT22;9989;48.962;9.182;2022-12-07T16:36:04;5.30;99.90
19680;DHT22;9989;48.962;9.182;2022-12-07T16:38:30;5.20;99.90
19680;DHT22;9989;48.962;9.182;2022-12-07T16:40:56;5.20;99.90
19680;DHT22;9989;48.962;9.182;2022-12-07T16:43:22;5.10;99.90
19680;DHT22;9989;48.962;9.182;2022-12-07T16:45:48;5.00;99.90
19680;DHT22;9989;48.962;9.182;2022-12-07T16:48:14;5.00;99.90
19680;DHT22;9989;48.962;9.182;2022-12-07T16:50:41;5.00;99.90
19680;DHT22;9989;48.962;9.182;2022-12-07T16:53:08;5.00;99.90
19680;DHT22;9989;48.962;9.182;2022-12-07T16:55:42;5.00;99.90
19680;DHT22;9989;48.962;9.182;2022-12-07T16:58:08;5.00;99.90
19680;DHT22;9989;48.962;9.182;2022-12-07T17:00:34;5.00;99.90
19680;DHT22;9989;48.962;9.182;2022-12-07T17:03:00;5.00;99.90
19680;DHT22;9989;48.962;9.182;2022-12-07T17:05:26;5.00;99.90
19680;DHT22;9989;48.962;9.182;2022-12-07T17:07:54;5.00;99.90
19680;DHT22;9989;48.962;9.182;2022-12-07T17:10:20;5.00;99.90
19680;DHT22;9989;48.962;9.182;2022-12-07T17:12:46;5.00;99.90
19680;DHT22;9989;48.962;9.182;2022-12-07T17:15:12;5.00;99.90
19680;DHT22;9989;48.962;9.182;2022-12-07T17:17:55;5.00;99.90
19680;DHT22;9989;48.962;9.182;2022-12-07T17:20:24;5.00;99.90
19680;DHT22;9989;48.962;9.182;2022-12-07T17:22:49;4.90;99.90
19680;DHT22;9989;48.962;9.182;2022-12-07T17:25:15;5.00;99.90
19680;DHT22;9989;48.962;9.182;2022-12-07T17:27:41;4.90;99.90
19680;DHT22;9989;48.962;9.182;2022-12-07T17:30:08;4.90;99.90
19680;DHT22;9989;48.962;9.182;2022-12-07T17:32:34;5.00;99.90
19680;DHT22;9989;48.962;9.182;2022-12-07T17:34:59;5.00;99.90
19680;DHT22;9989;48.962;9.182;2022-12-07T17:37:26;4.90;99.90
19680;DHT22;9989;48.962;9.182;2022-12-07T17:39:52;5.00;99.90
19680;DHT22;9989;48.962;9.182;2022-12-07T17:42:21;5.00;99.90
19680;DHT22;9989;48.962;9.182;2022-12-07T17:45:04;5.00;99.90
19680;DHT22;9989;48.962;9.182;2022-12-07T17:47:29;5.00;99.90
19680;DHT22;9989;48.962;9.182;2022-12-07T17:49:55;5.00;99.90
19680;DHT22;9989;48.962;9.182;2022-12-07T17:52:21;5.00;99.90
19680;DHT22;9989;48.962;9.182;2022-12-07T17:55:06;5.00;99.90
19680;DHT22;9989;48.962;9.182;2022-12-07T17:57:31;5.00;99.90
19680;DHT22;9989;48.962;9.182;2022-12-07T17:59:57;5.00;99.90
19680;DHT22;9989;48.962;9.182;2022-12-07T18:02:23;5.00;99.90
19680;DHT22;9989;48.962;9.182;2022-12-07T18:04:48;5.10;99.90
19680;DHT22;9989;48.962;9.182;2022-12-07T18:07:14;5.00;99.90
19680;DHT22;9989;48.962;9.182;2022-12-07T18:09:40;5.00;99.90
19680;DHT22;9989;48.962;9.182;2022-12-07T18:12:06;5.00;99.90
19680;DHT22;9989;48.962;9.182;2022-12-07T18:14:32;5.00;99.90
19680;DHT22;9989;48.962;9.182;2022-12-07T18:16:58;5.10;99.90
19680;DHT22;9989;48.962;9.182;2022-12-07T18:19:24;5.00;99.90
19680;DHT22;9989;48.962;9.182;2022-12-07T18:21:49;5.00;99.90
19680;DHT22;9989;48.962;9.182;2022-12-07T18:24:16;5.00;99.90
19680;DHT22;9989;48.962;9.182;2022-12-07T18:26:43;5.00;99.90
19680;DHT22;9989;48.962;9.182;2022-12-07T18:29:16;5.10;99.90
19680;DHT22;9989;48.962;9.182;2022-12-07T18:31:43;5.10;99.90
19680;DHT22;9989;48.962;9.182;2022-12-07T18:34:11;5.10;99.90
19680;DHT22;9989;48.962;9.182;2022-12-07T18:36:38;5.10;99.90
19680;DHT22;9989;48.962;9.182;2022-12-07T18:39:07;5.10;99.90
19680;DHT22;9989;48.962;9.182;2022-12-07T18:41:33;5.10;99.90
19680;DHT22;9989;48.962;9.182;2022-12-07T18:43:58;5.10;99.90
19680;DHT22;9989;48.962;9.182;2022-12-07T18:46:24;5.20;99.90
19680;DHT22;9989;48.962;9.182;2022-12-07T18:48:50;5.20;99.90